createdAt,value
2023-10-26T00:00:32.135Z,13.98
2023-10-26T00:02:59.166Z,16.52
2023-10-26T00:05:26.294Z,15.60
2023-10-26T00:07:53.197Z,16.52
2023-10-26T00:10:20.117Z,15.70
2023-10-26T00:12:46.929Z,18.08
2023-10-26T00:15:13.789Z,18.00
2023-10-26T00:17:41.928Z,14.00
2023-10-26T00:20:09.837Z,14.10
2023-10-26T00:22:36.433Z,18.27
2023-10-26T00:25:07.400Z,19.98
2023-10-26T00:27:34.014Z,17.10
2023-10-26T00:30:00.628Z,17.52
2023-10-26T00:32:27.351Z,18.48
2023-10-26T00:34:55.772Z,17.88
2023-10-26T00:37:22.366Z,19.52
2023-10-26T00:39:48.900Z,17.98
2023-10-26T00:42:15.525Z,19.80
2023-10-26T00:44:42.324Z,18.33
2023-10-26T00:47:09.454Z,20.48
2023-10-26T00:49:36.119Z,18.60
2023-10-26T00:52:05.276Z,17.88
2023-10-26T00:54:32.602Z,21.45
2023-10-26T00:57:00.012Z,24.50
2023-10-26T00:59:28.204Z,20.25
2023-10-26T01:01:56.490Z,21.35
2023-10-26T01:04:23.090Z,25.52
2023-10-26T01:06:49.716Z,19.25
2023-10-26T01:09:17.919Z,21.27
2023-10-26T01:11:45.079Z,22.02
2023-10-26T01:14:11.855Z,21.67
2023-10-26T01:16:38.832Z,19.25
2023-10-26T01:19:09.212Z,21.70
2023-10-26T01:21:49.461Z,23.13
2023-10-26T01:24:16.249Z,21.85
2023-10-26T01:26:42.949Z,22.33
2023-10-26T01:29:09.939Z,24.33
2023-10-26T01:31:36.957Z,18.67
2023-10-26T01:34:04.320Z,21.55
2023-10-26T01:36:31.335Z,17.92
2023-10-26T01:39:00.010Z,21.52
2023-10-26T01:41:26.753Z,27.13
2023-10-26T01:43:53.349Z,21.30
2023-10-26T01:46:19.956Z,22.27
2023-10-26T01:48:46.716Z,23.75
2023-10-26T01:51:13.470Z,25.50
2023-10-26T01:53:40.222Z,21.75
2023-10-26T01:56:08.259Z,19.48
2023-10-26T01:58:34.893Z,19.65
2023-10-26T02:01:01.555Z,19.40
2023-10-26T02:03:28.267Z,20.08
2023-10-26T02:05:55.177Z,20.60
2023-10-26T02:08:21.880Z,21.17
2023-10-26T02:10:48.452Z,27.33
2023-10-26T02:13:16.316Z,22.98
2023-10-26T02:15:42.896Z,22.02
2023-10-26T02:18:09.613Z,20.80
2023-10-26T02:20:36.367Z,20.77
2023-10-26T02:23:03.013Z,23.80
2023-10-26T02:25:29.679Z,23.05
2023-10-26T02:27:56.276Z,20.85
2023-10-26T02:30:24.493Z,23.83
2023-10-26T02:32:51.194Z,27.30
2023-10-26T02:35:17.779Z,22.38
2023-10-26T02:37:44.508Z,24.90
2023-10-26T02:40:11.893Z,21.80
2023-10-26T02:42:38.579Z,21.80
2023-10-26T02:45:06.271Z,21.85
2023-10-26T02:47:34.363Z,27.52
2023-10-26T02:50:01.121Z,22.27
2023-10-26T02:52:27.766Z,25.20
2023-10-26T02:54:54.386Z,23.42
2023-10-26T02:57:21.033Z,24.30
2023-10-26T02:59:47.656Z,24.63
2023-10-26T03:02:14.253Z,26.08
2023-10-26T03:04:42.444Z,25.42
2023-10-26T03:07:11.036Z,26.10
2023-10-26T03:09:37.775Z,22.42
2023-10-26T03:12:05.274Z,23.80
2023-10-26T03:14:31.922Z,26.67
2023-10-26T03:16:58.519Z,23.98
2023-10-26T03:19:25.120Z,24.58
2023-10-26T03:21:53.040Z,24.88
2023-10-26T03:24:19.739Z,25.60
2023-10-26T03:26:46.458Z,23.42
2023-10-26T03:29:13.141Z,25.73
2023-10-26T03:31:39.774Z,28.95
2023-10-26T03:34:06.461Z,24.88
2023-10-26T03:36:33.152Z,23.27
2023-10-26T03:39:01.407Z,30.63
2023-10-26T03:41:28.091Z,24.45
2023-10-26T03:43:54.800Z,28.00
2023-10-26T03:46:21.425Z,28.15
2023-10-26T03:48:48.119Z,24.63
2023-10-26T03:51:14.718Z,26.90
2023-10-26T03:53:41.580Z,25.08
2023-10-26T03:56:09.621Z,24.75
2023-10-26T03:58:36.133Z,25.08
2023-10-26T04:01:03.501Z,27.20
2023-10-26T04:03:30.160Z,24.60
2023-10-26T04:05:56.746Z,24.80
2023-10-26T04:08:23.278Z,24.35
2023-10-26T04:10:49.944Z,25.55
2023-10-26T04:13:17.972Z,27.35
2023-10-26T04:15:44.581Z,24.33
2023-10-26T04:18:11.332Z,27.08
2023-10-26T04:20:37.948Z,29.40
2023-10-26T04:23:04.586Z,22.00
2023-10-26T04:25:50.111Z,23.60
2023-10-26T04:28:19.226Z,25.40
2023-10-26T04:30:46.668Z,27.13
2023-10-26T04:33:13.492Z,24.05
2023-10-26T04:35:41.795Z,28.90
2023-10-26T04:38:08.523Z,27.92
2023-10-26T04:40:35.385Z,26.02
2023-10-26T04:43:02.041Z,28.05
2023-10-26T04:45:30.286Z,26.00
2023-10-26T04:47:57.147Z,26.92
2023-10-26T04:50:23.885Z,26.63
2023-10-26T04:52:52.190Z,26.23
2023-10-26T04:55:19.042Z,24.25
2023-10-26T04:57:46.340Z,27.52
2023-10-26T05:00:13.829Z,28.77
2023-10-26T05:02:42.288Z,20.73
2023-10-26T05:05:09.381Z,21.55
2023-10-26T05:07:35.968Z,23.17
2023-10-26T05:10:02.727Z,21.50
2023-10-26T05:12:29.758Z,20.80
2023-10-26T05:14:56.457Z,23.73
2023-10-26T05:17:23.203Z,21.50
2023-10-26T05:19:51.138Z,21.10
2023-10-26T05:22:17.779Z,22.88
2023-10-26T05:24:44.776Z,20.08
2023-10-26T05:27:11.886Z,21.45
2023-10-26T05:29:38.545Z,21.35
2023-10-26T05:32:05.767Z,18.60
2023-10-26T05:34:32.349Z,22.45
2023-10-26T05:37:00.356Z,17.38
2023-10-26T05:39:26.983Z,18.27
2023-10-26T05:41:53.567Z,18.55
2023-10-26T05:44:20.372Z,19.42
2023-10-26T05:46:47.040Z,20.75
2023-10-26T05:49:13.889Z,21.83
2023-10-26T05:51:40.527Z,16.98
2023-10-26T05:54:08.664Z,20.38
2023-10-26T05:56:35.575Z,22.02
2023-10-26T05:59:05.471Z,20.23
2023-10-26T06:01:32.240Z,19.52
2023-10-26T06:03:59.036Z,18.63
2023-10-26T06:06:25.745Z,19.80
2023-10-26T06:08:53.525Z,21.02
2023-10-26T06:11:21.581Z,19.63
2023-10-26T06:13:49.509Z,20.83
2023-10-26T06:16:16.286Z,20.00
2023-10-26T06:18:43.173Z,17.77
2023-10-26T06:21:10.163Z,19.73
2023-10-26T06:23:36.849Z,17.92
2023-10-26T06:26:05.456Z,18.08
2023-10-26T06:28:33.511Z,22.65
2023-10-26T06:31:09.305Z,20.80
2023-10-26T06:33:36.135Z,17.23
2023-10-26T06:36:02.963Z,19.33
2023-10-26T06:38:29.868Z,18.75
2023-10-26T06:40:56.475Z,18.38
2023-10-26T06:43:24.660Z,18.33
2023-10-26T06:45:52.714Z,18.63
2023-10-26T06:48:20.413Z,17.63
2023-10-26T06:50:47.214Z,21.17
2023-10-26T06:53:17.599Z,19.27
2023-10-26T06:55:44.252Z,18.73
2023-10-26T06:58:10.873Z,18.38
2023-10-26T07:00:37.608Z,19.17
2023-10-26T07:03:05.860Z,15.98
2023-10-26T07:05:34.258Z,15.48
2023-10-26T07:08:00.895Z,17.73
2023-10-26T07:10:27.595Z,16.02
2023-10-26T07:12:54.211Z,16.67
2023-10-26T07:15:21.187Z,14.73
2023-10-26T07:17:47.948Z,13.88
2023-10-26T07:20:16.012Z,17.48
2023-10-26T07:22:42.600Z,17.38
2023-10-26T07:25:09.952Z,16.08
2023-10-26T07:27:36.822Z,15.57
2023-10-26T07:30:03.742Z,16.10
2023-10-26T07:32:30.386Z,15.85
2023-10-26T07:34:57.020Z,14.85
2023-10-26T07:37:25.156Z,14.80
2023-10-26T07:39:51.874Z,18.13
2023-10-26T07:42:38.545Z,16.13
2023-10-26T07:45:06.130Z,17.90
2023-10-26T07:47:33.324Z,17.15
2023-10-26T07:50:00.138Z,17.17
2023-10-26T07:52:28.206Z,18.20
2023-10-26T07:54:55.109Z,15.32
2023-10-26T07:57:21.742Z,20.40
2023-10-26T07:59:48.419Z,18.23
2023-10-26T08:02:15.289Z,22.88
2023-10-26T08:04:42.293Z,23.30
2023-10-26T08:07:09.267Z,20.08
2023-10-26T08:09:37.246Z,19.98
2023-10-26T08:12:04.376Z,20.90
2023-10-26T08:16:04.863Z,21.15
2023-10-26T08:17:17.889Z,19.85
2023-10-26T08:19:45.111Z,22.83
2023-10-26T08:22:12.660Z,24.08
2023-10-26T08:24:40.820Z,21.13
2023-10-26T08:27:07.820Z,21.65
2023-10-26T08:29:35.084Z,20.52
2023-10-26T08:32:01.919Z,24.65
2023-10-26T08:34:28.727Z,21.30
2023-10-26T08:37:12.505Z,18.42
2023-10-26T08:39:41.702Z,24.20
2023-10-26T08:42:08.434Z,23.23
2023-10-26T08:44:35.317Z,21.40
2023-10-26T08:47:05.008Z,21.00
2023-10-26T08:49:32.545Z,19.50
2023-10-26T08:51:59.676Z,21.08
2023-10-26T08:54:27.361Z,18.50
2023-10-26T08:56:55.506Z,21.35
2023-10-26T08:59:22.627Z,21.55
2023-10-26T09:01:49.736Z,19.85
2023-10-26T09:04:17.102Z,21.80
2023-10-26T09:06:44.300Z,21.52
2023-10-26T09:09:13.037Z,22.27
2023-10-26T09:11:39.872Z,19.67
2023-10-26T09:14:15.233Z,21.58
2023-10-26T09:16:42.541Z,19.25
2023-10-26T09:19:09.701Z,18.27
2023-10-26T09:21:53.901Z,18.75
2023-10-26T09:24:22.166Z,23.63
2023-10-26T09:26:48.793Z,20.38
2023-10-26T09:29:18.667Z,18.63
2023-10-26T09:31:53.273Z,18.98
2023-10-26T09:34:23.641Z,21.98
2023-10-26T09:37:00.828Z,17.30
2023-10-26T09:39:29.984Z,21.50
2023-10-26T09:41:56.961Z,17.00
2023-10-26T09:44:25.124Z,20.88
2023-10-26T09:46:52.149Z,23.65
2023-10-26T09:49:19.088Z,18.20
2023-10-26T09:51:46.597Z,17.75
2023-10-26T09:54:14.323Z,17.30
2023-10-26T09:56:46.199Z,17.67
2023-10-26T09:59:14.338Z,20.05
2023-10-26T10:01:42.545Z,19.60
2023-10-26T10:04:10.476Z,18.20
2023-10-26T10:06:54.607Z,20.10
2023-10-26T10:09:23.251Z,19.52
2023-10-26T10:12:26.122Z,16.98
2023-10-26T10:15:15.749Z,16.08
2023-10-26T10:18:11.695Z,15.43
2023-10-26T10:20:39.744Z,15.77
2023-10-26T10:23:06.500Z,16.13
2023-10-26T10:25:55.682Z,13.20
2023-10-26T10:28:22.503Z,15.30
2023-10-26T10:30:51.016Z,14.93
2023-10-26T10:33:24.564Z,20.05
2023-10-26T10:36:01.936Z,14.02
2023-10-26T10:38:29.320Z,15.02
2023-10-26T10:41:09.885Z,14.80
2023-10-26T10:43:37.848Z,15.98
2023-10-26T10:46:14.392Z,14.45
2023-10-26T10:49:02.879Z,16.83
2023-10-26T10:51:33.767Z,15.77
2023-10-26T10:54:06.051Z,16.30
2023-10-26T10:56:43.478Z,15.98
2023-10-26T10:59:20.747Z,19.08
2023-10-26T11:01:48.046Z,21.23
2023-10-26T11:04:16.484Z,18.92
2023-10-26T11:06:48.114Z,16.98
2023-10-26T11:09:23.101Z,16.73
2023-10-26T11:11:49.938Z,16.75
2023-10-26T11:14:17.129Z,15.55
2023-10-26T11:16:44.198Z,16.02
2023-10-26T11:19:11.135Z,18.73
2023-10-26T11:21:40.378Z,17.35
2023-10-26T11:24:08.133Z,17.35
2023-10-26T11:26:34.955Z,16.35
2023-10-26T11:29:01.681Z,19.30
2023-10-26T11:31:38.912Z,18.33
2023-10-26T11:34:06.893Z,20.55
2023-10-26T11:36:35.394Z,23.23
2023-10-26T11:39:04.201Z,20.98
2023-10-26T11:41:35.746Z,23.63
2023-10-26T11:44:04.513Z,19.50
2023-10-26T11:46:34.944Z,24.10
2023-10-26T11:49:03.123Z,19.98
2023-10-26T11:51:30.079Z,21.92
2023-10-26T11:54:09.533Z,21.48
2023-10-26T11:56:40.412Z,20.60
2023-10-26T11:59:11.793Z,17.80
2023-10-26T12:01:38.872Z,18.42
2023-10-26T12:04:11.940Z,16.55
2023-10-26T12:06:38.644Z,15.77
2023-10-26T12:09:05.625Z,16.70
2023-10-26T12:11:33.015Z,17.00
2023-10-26T12:14:06.099Z,15.02
2023-10-26T12:16:34.389Z,16.58
2023-10-26T12:19:02.143Z,16.60
2023-10-26T12:21:29.708Z,20.13
2023-10-26T12:23:59.347Z,16.50
2023-10-26T12:26:29.320Z,16.50
2023-10-26T12:28:59.751Z,17.05
2023-10-26T12:31:29.474Z,17.63
2023-10-26T12:33:56.720Z,17.10
2023-10-26T12:36:23.564Z,13.93
2023-10-26T12:38:50.311Z,15.80
2023-10-26T12:41:17.398Z,14.55
2023-10-26T12:43:44.728Z,13.98
2023-10-26T12:46:19.053Z,22.50
2023-10-26T12:48:47.339Z,17.55
2023-10-26T12:51:17.188Z,19.80
2023-10-26T12:53:44.167Z,19.75
2023-10-26T12:56:10.982Z,16.33
2023-10-26T12:58:38.014Z,15.55
2023-10-26T13:01:05.974Z,13.05
2023-10-26T13:03:32.681Z,13.70
2023-10-26T13:06:00.823Z,16.58
2023-10-26T13:08:27.658Z,18.52
2023-10-26T13:10:54.545Z,13.23
2023-10-26T13:13:21.291Z,14.40
2023-10-26T13:15:48.305Z,14.77
2023-10-26T13:18:14.988Z,14.55
2023-10-26T13:20:44.779Z,15.27
2023-10-26T13:23:13.167Z,13.40
2023-10-26T13:25:39.967Z,12.90
2023-10-26T13:28:06.966Z,16.77
2023-10-26T13:30:33.773Z,13.05
2023-10-26T13:33:01.014Z,11.68
2023-10-26T13:35:27.838Z,13.10
2023-10-26T13:37:54.758Z,12.73
2023-10-26T13:40:23.018Z,11.55
2023-10-26T13:42:49.676Z,15.88
2023-10-26T13:45:16.410Z,13.90
2023-10-26T13:47:43.366Z,14.25
2023-10-26T13:50:10.265Z,13.43
2023-10-26T13:52:37.031Z,13.82
2023-10-26T13:55:04.481Z,15.02
2023-10-26T13:57:32.556Z,13.93
2023-10-26T13:59:59.379Z,18.77
2023-10-26T14:02:26.257Z,14.80
2023-10-26T14:05:07.115Z,15.55
2023-10-26T14:07:36.535Z,18.20
2023-10-26T14:10:03.569Z,15.75
2023-10-26T14:12:31.974Z,13.90
2023-10-26T14:14:58.990Z,15.15
2023-10-26T14:17:25.965Z,14.65
2023-10-26T14:19:52.911Z,22.27
2023-10-26T14:22:19.613Z,13.00
2023-10-26T14:24:46.943Z,16.23
2023-10-26T14:27:13.817Z,15.65
2023-10-26T14:29:42.190Z,17.40
2023-10-26T14:32:08.991Z,16.05
2023-10-26T14:34:35.812Z,18.55
2023-10-26T14:37:02.589Z,22.13
2023-10-26T14:39:29.412Z,18.92
2023-10-26T14:41:56.156Z,17.98
2023-10-26T14:44:22.810Z,15.43
2023-10-26T14:46:50.866Z,15.90
2023-10-26T14:49:17.451Z,17.17
2023-10-26T14:51:44.108Z,14.35
2023-10-26T14:54:10.766Z,14.70
2023-10-26T14:56:37.456Z,16.67
2023-10-26T14:59:04.301Z,18.85
2023-10-26T15:01:31.061Z,16.17
2023-10-26T15:04:00.003Z,16.05
2023-10-26T15:06:26.862Z,18.70
2023-10-26T15:08:53.502Z,14.80
2023-10-26T15:11:23.809Z,14.65
2023-10-26T15:13:51.748Z,13.25
2023-10-26T15:16:18.670Z,16.98
2023-10-26T15:18:45.450Z,61.20
2023-10-26T15:21:13.606Z,18.83
2023-10-26T15:23:40.281Z,47.05
2023-10-26T15:26:07.404Z,21.80
2023-10-26T15:28:34.495Z,18.20
2023-10-26T15:31:01.425Z,15.52
2023-10-26T15:33:28.856Z,20.30
2023-10-26T15:35:55.567Z,18.10
2023-10-26T15:38:27.613Z,21.25
2023-10-26T15:41:02.405Z,18.40
2023-10-26T15:43:29.036Z,17.08
2023-10-26T15:45:55.909Z,21.77
2023-10-26T15:49:30.700Z,32.92
2023-10-26T15:51:09.712Z,76.82
2023-10-26T15:53:37.910Z,122.15
2023-10-26T15:56:05.544Z,79.68
2023-10-26T15:58:32.885Z,43.05
2023-10-26T16:01:01.052Z,37.30
2023-10-26T16:03:28.194Z,46.83
2023-10-26T16:05:55.001Z,26.02
2023-10-26T16:08:21.657Z,33.80
2023-10-26T16:10:49.813Z,39.25
2023-10-26T16:13:16.655Z,33.88
2023-10-26T16:15:43.305Z,32.88
2023-10-26T16:18:10.020Z,32.40
2023-10-26T16:20:36.745Z,26.45
2023-10-26T16:23:03.409Z,52.75
2023-10-26T16:25:30.220Z,66.43
2023-10-26T16:27:58.358Z,31.20
2023-10-26T16:30:25.254Z,27.02
2023-10-26T16:32:52.002Z,19.40
2023-10-26T16:35:18.841Z,18.92
2023-10-26T16:37:45.529Z,16.60
2023-10-26T16:40:12.545Z,15.80
2023-10-26T16:42:39.227Z,17.25
2023-10-26T16:45:07.636Z,16.08
2023-10-26T16:47:44.500Z,14.95
2023-10-26T16:50:15.619Z,16.63
2023-10-26T16:52:42.364Z,19.83
2023-10-26T16:55:09.576Z,17.73
2023-10-26T16:57:36.410Z,16.92
2023-10-26T17:00:03.961Z,16.92
2023-10-26T17:02:34.611Z,18.83
2023-10-26T17:05:01.409Z,18.35
2023-10-26T17:07:28.193Z,19.65
2023-10-26T17:09:55.560Z,18.42
2023-10-26T17:12:22.388Z,21.48
2023-10-26T17:14:49.072Z,23.35
2023-10-26T17:17:15.737Z,22.50
2023-10-26T17:19:45.511Z,19.75
2023-10-26T17:22:12.801Z,20.15
2023-10-26T17:24:39.566Z,21.75
2023-10-26T17:27:06.382Z,21.02
2023-10-26T17:29:33.182Z,20.67
2023-10-26T17:31:59.945Z,21.38
2023-10-26T17:34:26.805Z,22.02
2023-10-26T17:36:55.156Z,22.80
2023-10-26T17:39:22.221Z,21.05
2023-10-26T17:41:49.007Z,18.80
2023-10-26T17:44:15.759Z,29.05
2023-10-26T17:46:42.571Z,23.65
2023-10-26T17:49:09.474Z,23.30
2023-10-26T17:51:36.277Z,22.30
2023-10-26T17:54:04.769Z,20.77
2023-10-26T17:56:32.173Z,23.42
2023-10-26T17:58:59.228Z,21.58
2023-10-26T18:01:26.050Z,19.85
2023-10-26T18:03:52.828Z,19.98
2023-10-26T18:06:19.667Z,24.08
2023-10-26T18:08:46.404Z,24.88
2023-10-26T18:11:14.607Z,21.80
2023-10-26T18:13:41.364Z,20.55
2023-10-26T18:16:08.242Z,20.67
2023-10-26T18:18:35.362Z,22.40
2023-10-26T18:21:03.061Z,24.52
2023-10-26T18:23:31.291Z,22.80
2023-10-26T18:25:58.121Z,23.55
2023-10-26T18:28:26.496Z,24.58
2023-10-26T18:31:03.919Z,20.75
2023-10-26T18:33:32.505Z,24.40
2023-10-26T18:36:00.511Z,23.17
2023-10-26T18:38:27.519Z,18.45
2023-10-26T18:40:54.378Z,20.10
2023-10-26T18:43:21.074Z,25.10
2023-10-26T18:45:56.180Z,20.30
2023-10-26T18:48:23.081Z,19.90
2023-10-26T18:50:50.161Z,22.88
2023-10-26T18:53:18.111Z,22.90
2023-10-26T18:55:44.923Z,22.92
2023-10-26T18:58:11.781Z,20.88
2023-10-26T19:00:39.509Z,20.02
2023-10-26T19:03:09.052Z,26.15
2023-10-26T19:05:36.296Z,24.45
2023-10-26T19:08:05.202Z,26.80
2023-10-26T19:10:32.274Z,23.70
2023-10-26T19:12:59.163Z,28.05
2023-10-26T19:15:26.110Z,23.50
2023-10-26T19:17:52.946Z,21.92
2023-10-26T19:20:21.115Z,23.40
2023-10-26T19:22:48.072Z,29.20
2023-10-26T19:25:15.846Z,25.80
2023-10-26T19:27:42.555Z,26.30
2023-10-26T19:30:09.824Z,23.85
2023-10-26T19:32:36.516Z,28.48
2023-10-26T19:35:03.392Z,23.50
2023-10-26T19:37:31.618Z,25.17
2023-10-26T19:39:58.565Z,32.42
2023-10-26T19:42:25.276Z,22.30
2023-10-26T19:44:52.425Z,20.15
2023-10-26T19:47:19.117Z,30.40
2023-10-26T19:49:46.259Z,26.00
2023-10-26T19:52:12.913Z,26.77
2023-10-26T19:54:41.005Z,30.05
2023-10-26T19:57:07.826Z,24.85
2023-10-26T19:59:34.723Z,31.10
2023-10-26T20:02:01.485Z,27.80
2023-10-26T20:04:28.173Z,26.80
2023-10-26T20:06:54.839Z,23.95
2023-10-26T20:09:21.570Z,29.77
2023-10-26T20:11:49.602Z,29.58
2023-10-26T20:14:16.375Z,24.25
2023-10-26T20:16:43.062Z,26.35
2023-10-26T20:19:10.016Z,27.90
2023-10-26T20:21:36.967Z,30.42
2023-10-26T20:24:04.404Z,24.73
2023-10-26T20:26:31.150Z,27.08
2023-10-26T20:28:59.714Z,27.02
2023-10-26T20:31:26.573Z,28.58
2023-10-26T20:33:53.330Z,29.33
2023-10-26T20:36:20.754Z,26.65
2023-10-26T20:38:47.374Z,20.35
2023-10-26T20:41:14.237Z,25.45
2023-10-26T20:43:40.920Z,22.65
2023-10-26T20:46:09.126Z,28.10
2023-10-26T20:48:35.818Z,30.05
2023-10-26T20:51:06.661Z,22.55
2023-10-26T20:53:33.329Z,24.90
2023-10-26T20:56:00.919Z,23.48
2023-10-26T20:58:28.471Z,24.48
2023-10-26T21:00:55.319Z,19.73
2023-10-26T21:03:23.419Z,27.77
2023-10-26T21:05:50.194Z,32.17
2023-10-26T21:08:16.887Z,26.85
2023-10-26T21:10:43.775Z,25.13
2023-10-26T21:13:10.571Z,28.08
2023-10-26T21:15:37.326Z,25.23
2023-10-26T21:18:04.229Z,27.58
2023-10-26T21:20:32.780Z,23.08
2023-10-26T21:22:59.800Z,28.23
2023-10-26T21:25:26.401Z,24.75
2023-10-26T21:27:53.026Z,26.80
2023-10-26T21:30:19.758Z,31.95
2023-10-26T21:32:46.425Z,23.88
2023-10-26T21:35:13.301Z,23.67
2023-10-26T21:37:41.411Z,20.10
2023-10-26T21:40:09.386Z,25.33
2023-10-26T21:42:36.167Z,23.63
2023-10-26T21:45:02.958Z,22.77
2023-10-26T21:47:29.646Z,22.77
2023-10-26T21:49:56.269Z,25.60
2023-10-26T21:52:22.941Z,24.13
2023-10-26T21:54:51.023Z,27.05
2023-10-26T21:57:17.668Z,28.85
2023-10-26T21:59:44.476Z,21.40
2023-10-26T22:02:11.264Z,25.50
2023-10-26T22:04:38.010Z,19.13
2023-10-26T22:07:04.732Z,22.15
2023-10-26T22:09:33.638Z,26.50
2023-10-26T22:12:04.854Z,31.38
2023-10-26T22:14:32.614Z,22.10
2023-10-26T22:16:59.351Z,23.65
2023-10-26T22:19:25.987Z,23.30
2023-10-26T22:21:52.616Z,26.33
2023-10-26T22:24:19.309Z,29.52
2023-10-26T22:26:45.924Z,29.52
2023-10-26T22:29:27.310Z,25.60
2023-10-26T22:31:56.404Z,29.38
2023-10-26T22:34:23.145Z,29.35
2023-10-26T22:36:49.918Z,32.35
2023-10-26T22:39:16.575Z,27.77
2023-10-26T22:41:43.155Z,29.63
2023-10-26T22:44:09.753Z,29.48
2023-10-26T22:46:37.874Z,34.28
2023-10-26T22:49:04.576Z,35.13
2023-10-26T22:51:31.311Z,25.92
2023-10-26T22:53:57.952Z,35.53
2023-10-26T22:56:24.568Z,29.13
2023-10-26T22:58:51.174Z,34.75
2023-10-26T23:01:17.820Z,26.45
2023-10-26T23:03:46.008Z,33.00
2023-10-26T23:06:12.767Z,31.77
2023-10-26T23:08:39.531Z,30.52
2023-10-26T23:11:06.217Z,33.42
2023-10-26T23:13:32.859Z,28.63
2023-10-26T23:15:59.539Z,40.80
2023-10-26T23:18:26.296Z,40.78
2023-10-26T23:20:54.369Z,33.78
2023-10-26T23:23:21.045Z,29.60
2023-10-26T23:25:47.753Z,36.83
2023-10-26T23:28:14.572Z,40.33
2023-10-26T23:30:41.227Z,38.78
2023-10-26T23:33:08.306Z,42.55
2023-10-26T23:35:37.807Z,34.00
2023-10-26T23:38:06.321Z,36.17
2023-10-26T23:40:32.922Z,44.42
2023-10-26T23:42:59.867Z,43.13
2023-10-26T23:45:26.763Z,38.70
2023-10-26T23:47:53.366Z,43.72
2023-10-26T23:50:20.048Z,43.83
2023-10-26T23:52:46.653Z,36.67
2023-10-26T23:55:14.960Z,44.35
2023-10-26T23:57:41.864Z,46.10
